Flight Track Log - Related Links

Times and Time Zones

All times are in EDT time to prevent confusion due to time zone crossing. See the N454AN flight status page for this flight to view local times or setup timezone preferences in your user account.

Time Position Orientation Groundspeed Altitude Reporting Facility
EDT Latitude Longitude Course Direction KTS MPH feet Rate Location/Type
Thu 06:11:57 PM 33.8500 -84.3167 270° West 199 229 2,100  Level Atlanta TRACON
Thu 06:12:57 PM 33.8500 -84.3833 270° West 229 264 3,000 1,300 Climbing Atlanta TRACON
Thu 06:13:57 PM 33.8333 -84.4667 256° West 216 249 4,700 1,000 Climbing Atlanta TRACON
Thu 06:14:57 PM 33.8333 -84.5333 270° West 252 290 5,000 800 Climbing Atlanta TRACON
Thu 06:15:57 PM 33.8167 -84.6333 259° West 276 318 6,300 2,250 Climbing Atlanta TRACON
Thu 06:16:57 PM 33.7833 -84.7167 244° Southwest 283 326 9,500 2,675 Climbing Atlanta TRACON
Thu 06:18:34 PM 33.7225 -84.8756 245° Southwest 355 409 13,300 2,599 Climbing Atlanta Center
Thu 06:19:34 PM 33.7069 -85.0003 262° West 370 426 16,300 2,350 Climbing Atlanta Center
Thu 06:20:34 PM 33.7353 -85.1281 285° West 383 441 18,000 850 Climbing Atlanta Center
Thu 06:21:34 PM 33.7656 -85.2433 288° West 394 453 18,000  Level Atlanta Center
Thu 06:22:34 PM 33.7975 -85.3736 286° West 400 460 18,000  Level Atlanta Center
Thu 06:23:34 PM 33.8314 -85.5017 288° West 402 463 18,000  Level Atlanta Center
Thu 06:24:34 PM 33.8653 -85.6300 288° West 402 463 18,000  Level Atlanta Center
Thu 06:25:34 PM 33.8969 -85.7606 286° West 402 463 18,000  Level Atlanta Center
Thu 06:26:34 PM 33.9325 -85.8992 287° West 402 463 18,000  Level Atlanta Center
Thu 06:27:34 PM 33.9661 -86.0275 288° West 402 463 18,000  Level Atlanta Center
Thu 06:29:20 PM 34.0497 -86.2258 297° West 398 458 18,000  Level Memphis Center
Thu 06:30:20 PM 34.1053 -86.3336 302° West 408 470 18,000  Level Memphis Center
Thu 06:31:20 PM 34.1764 -86.4708 302° West 413 475 18,000 -150 Level Memphis Center
Thu 06:32:20 PM 34.2322 -86.5864 300° West 413 475 17,700 -1,000 Descending Memphis Center
Thu 06:33:20 PM 34.2878 -86.6944 302° West 396 456 16,000 -1,850 Descending Memphis Center
Thu 06:34:20 PM 34.3431 -86.8028 302° West 391 450 14,000 -2,100 Descending Memphis Center
Thu 06:35:20 PM 34.3958 -86.9064 302° West 378 435 11,800 -2,250 Descending Memphis Center
Thu 06:36:20 PM 34.4422 -86.9975 302° West 348 400 9,500 -2,100 Descending Memphis Center
Thu 06:37:20 PM 34.4819 -87.0792 301° West 311 358 7,600 -1,750 Descending Memphis Center
Thu 06:38:20 PM 34.5217 -87.1558 302° West 283 326 6,000 -1,600 Descending Memphis Center
Thu 06:39:20 PM 34.5592 -87.2350 300° West 273 314 4,400 -1,500 Descending Memphis Center
Thu 06:40:20 PM 34.6006 -87.3092 304° West 268 308 3,000 -850 Descending Memphis Center
Thu 06:41:20 PM 34.6356 -87.3786 302° West 268 308 2,700 -300 Descending Memphis Center

Login

Don't have an account? Register now (free) for customized features, flight alerts, and more!